Time;durP1;ratioP1;P1;durP2;ratioP2;P2;SDS_P1;SDS_P2;PMS_P1;PMS_P2;Temp;Humidity;BMP_temperature;BMP_pressure;BME280_temperature;BME280_humidity;BME280_pressure;Samples;Min_cycle;Max_cycle;Signal;HPM_P1;HPM_P2
2023/05/31 00:01:57;;;;;;;0.00;0.00;;;;;;;;;;4990625;28;20198;-80
2023/05/31 00:04:26;;;;;;;0.00;0.00;;;;;;;;;;4990079;28;20234;-85
2023/05/31 00:06:55;;;;;;;0.00;0.00;;;;;;;;;;4988864;28;20202;-80
2023/05/31 00:09:23;;;;;;;0.00;0.00;;;;;;;;;;4987510;28;20202;-82
2023/05/31 00:11:52;;;;;;;0.00;0.00;;;;;;;;;;4988850;28;20226;-84
2023/05/31 00:14:21;;;;;;;0.00;0.00;;;;;;;;;;4988008;28;20222;-82
2023/05/31 00:16:50;;;;;;;0.00;0.00;;;;;;;;;;4988556;28;20740;-83
2023/05/31 00:19:21;;;;;;;0.00;0.00;;;;;;;;;;4988763;28;20595;-85
2023/05/31 00:21:50;;;;;;;0.00;0.00;;;;;;;;;;4987498;28;20213;-85
2023/05/31 00:24:19;;;;;;;0.00;0.00;;;;;;;;;;4987882;28;20229;-81
2023/05/31 00:26:47;;;;;;;0.00;0.00;;;;;;;;;;4987923;28;20206;-82
2023/05/31 00:29:15;;;;;;;0.00;0.00;;;;;;;;;;4988272;28;20594;-82
2023/05/31 00:31:45;;;;;;;0.00;0.00;;;;;;;;;;4987612;28;20284;-81
2023/05/31 00:34:14;;;;;;;0.00;0.00;;;;;;;;;;4988169;28;20301;-83
2023/05/31 00:36:43;;;;;;;0.00;0.00;;;;;;;;;;4986750;28;20576;-83
2023/05/31 00:39:11;;;;;;;0.00;0.00;;;;;;;;;;4986716;28;20597;-83
2023/05/31 00:41:40;;;;;;;0.00;0.00;;;;;;;;;;4986249;28;20302;-79
2023/05/31 00:44:08;;;;;;;0.00;0.00;;;;;;;;;;4987649;28;20678;-80
2023/05/31 00:46:38;;;;;;;0.00;0.00;;;;;;;;;;4988714;28;20292;-82
2023/05/31 00:49:08;;;;;;;0.00;0.00;;;;;;;;;;4988348;28;20265;-79
2023/05/31 00:51:37;;;;;;;0.00;0.00;;;;;;;;;;4987453;28;20231;-82
2023/05/31 00:54:06;;;;;;;0.00;0.00;;;;;;;;;;4986149;28;20226;-82
2023/05/31 00:56:35;;;;;;;0.00;0.00;;;;;;;;;;4986668;28;20201;-83
2023/05/31 00:59:04;;;;;;;0.00;0.00;;;;;;;;;;4988899;28;20217;-83
2023/05/31 01:01:33;;;;;;;0.00;0.00;;;;;;;;;;4988612;28;20225;-81
2023/05/31 01:04:02;;;;;;;0.00;0.00;;;;;;;;;;4987514;28;20205;-79
2023/05/31 01:06:34;;;;;;;0.00;0.00;;;;;;;;;;4987791;28;20206;-85
2023/05/31 01:09:04;;;;;;;0.00;0.00;;;;;;;;;;4986593;28;20210;-83
2023/05/31 01:11:40;;;;;;;0.00;0.00;;;;;;;;;;4988514;28;20269;-84
2023/05/31 01:14:14;;;;;;;0.00;0.00;;;;;;;;;;4988355;28;20228;-83
2023/05/31 01:16:44;;;;;;;0.00;0.00;;;;;;;;;;4989467;28;20222;-82
2023/05/31 01:19:20;;;;;;;0.00;0.00;;;;;;;;;;4986606;28;20213;-79
2023/05/31 01:21:59;;;;;;;0.00;0.00;;;;;;;;;;4988954;28;20216;-84
2023/05/31 01:24:32;;;;;;;0.00;0.00;;;;;;;;;;4989701;28;20686;-82
2023/05/31 01:27:03;;;;;;;0.00;0.00;;;;;;;;;;4988403;28;20216;-83
2023/05/31 01:29:32;;;;;;;0.00;0.00;;;;;;;;;;4989241;28;20241;-84
2023/05/31 01:32:01;;;;;;;0.00;0.00;;;;;;;;;;4987596;28;20217;-80
2023/05/31 01:34:30;;;;;;;0.00;0.00;;;;;;;;;;4990401;28;20694;-81
2023/05/31 01:36:58;;;;;;;0.00;0.00;;;;;;;;;;4988425;28;20206;-83
2023/05/31 01:39:27;;;;;;;0.00;0.00;;;;;;;;;;4989126;28;20217;-82
2023/05/31 01:41:56;;;;;;;0.00;0.00;;;;;;;;;;4986773;28;20230;-83
2023/05/31 01:44:26;;;;;;;0.00;0.00;;;;;;;;;;5021517;22;20234;-84
2023/05/31 01:46:55;;;;;;;0.00;0.00;;;;;;;;;;5037871;28;20703;-84
2023/05/31 01:49:24;;;;;;;0.00;0.00;;;;;;;;;;5037228;28;20652;-79
2023/05/31 01:51:53;;;;;;;0.00;0.00;;;;;;;;;;5036234;28;20690;-84
2023/05/31 01:54:21;;;;;;;0.00;0.00;;;;;;;;;;5037030;28;20228;-84
2023/05/31 01:56:50;;;;;;;0.00;0.00;;;;;;;;;;5036946;28;20210;-82
2023/05/31 01:59:19;;;;;;;0.00;0.00;;;;;;;;;;5037568;28;20199;-81
2023/05/31 02:01:49;;;;;;;0.00;0.00;;;;;;;;;;5037124;28;20210;-81
2023/05/31 02:04:19;;;;;;;0.00;0.00;;;;;;;;;;5036957;28;20295;-82
2023/05/31 02:06:48;;;;;;;0.00;0.00;;;;;;;;;;5038182;28;20617;-83
2023/05/31 02:09:16;;;;;;;0.00;0.00;;;;;;;;;;5037919;28;20253;-84
2023/05/31 02:11:45;;;;;;;0.00;0.00;;;;;;;;;;5033160;28;20204;-84
2023/05/31 02:14:13;;;;;;;0.00;0.00;;;;;;;;;;5018396;28;20592;-79
2023/05/31 02:16:41;;;;;;;0.00;0.00;;;;;;;;;;5018606;28;20566;-85
2023/05/31 02:19:13;;;;;;;0.00;0.00;;;;;;;;;;5017881;28;20665;-83
2023/05/31 02:21:42;;;;;;;0.00;0.00;;;;;;;;;;5020078;28;20239;-79
2023/05/31 02:24:11;;;;;;;0.00;0.00;;;;;;;;;;5038380;28;20205;-78
2023/05/31 02:26:39;;;;;;;0.00;0.00;;;;;;;;;;5038982;28;20204;-80
2023/05/31 02:29:09;;;;;;;0.00;0.00;;;;;;;;;;5038083;28;20207;-79
2023/05/31 02:31:38;;;;;;;0.00;0.00;;;;;;;;;;5037542;28;20552;-82
2023/05/31 02:34:08;;;;;;;0.00;0.00;;;;;;;;;;5036962;28;20231;-82
2023/05/31 02:36:38;;;;;;;0.00;0.00;;;;;;;;;;5033804;28;20222;-84
2023/05/31 02:39:06;;;;;;;0.00;0.00;;;;;;;;;;5033386;28;20199;-84
2023/05/31 02:41:35;;;;;;;0.00;0.00;;;;;;;;;;5036909;28;20204;-81
2023/05/31 02:44:03;;;;;;;0.00;0.00;;;;;;;;;;5037739;28;20214;-80
2023/05/31 02:46:32;;;;;;;0.00;0.00;;;;;;;;;;5042859;28;20270;-85
2023/05/31 02:49:00;;;;;;;0.00;0.00;;;;;;;;;;5043215;28;20274;-84
2023/05/31 02:51:29;;;;;;;0.00;0.00;;;;;;;;;;5041243;28;20204;-83
2023/05/31 02:53:59;;;;;;;0.00;0.00;;;;;;;;;;5041357;28;20225;-84
2023/05/31 02:56:27;;;;;;;0.00;0.00;;;;;;;;;;5042381;28;20196;-84
2023/05/31 02:58:56;;;;;;;0.00;0.00;;;;;;;;;;5042472;28;20208;-83
2023/05/31 03:01:25;;;;;;;0.00;0.00;;;;;;;;;;5042479;28;20760;-84
2023/05/31 03:03:54;;;;;;;0.10;0.10;;;;;;;;;;5041723;28;20199;-83
2023/05/31 03:06:23;;;;;;;0.00;0.00;;;;;;;;;;5042503;28;20203;-83
2023/05/31 03:08:51;;;;;;;0.00;0.00;;;;;;;;;;5042266;28;20242;-84
2023/05/31 03:11:21;;;;;;;0.00;0.00;;;;;;;;;;5041735;28;20211;-83
2023/05/31 03:13:50;;;;;;;0.00;0.00;;;;;;;;;;5042499;28;20677;-83
2023/05/31 03:16:20;;;;;;;0.00;0.00;;;;;;;;;;5042237;28;20242;-84
2023/05/31 03:18:50;;;;;;;0.00;0.00;;;;;;;;;;5041927;28;20191;-85
2023/05/31 03:21:19;;;;;;;0.00;0.00;;;;;;;;;;5041786;28;20655;-84
2023/05/31 03:23:47;;;;;;;0.00;0.00;;;;;;;;;;5041358;28;20226;-76
2023/05/31 03:26:16;;;;;;;0.00;0.00;;;;;;;;;;5042193;28;20700;-76
2023/05/31 03:28:46;;;;;;;0.00;0.00;;;;;;;;;;5041516;28;20203;-82
2023/05/31 03:31:15;;;;;;;0.00;0.00;;;;;;;;;;5041882;28;20215;-84
2023/05/31 03:33:43;;;;;;;0.00;0.00;;;;;;;;;;5041259;28;20226;-78
2023/05/31 03:36:12;;;;;;;0.00;0.00;;;;;;;;;;5041732;28;20270;-82
2023/05/31 03:38:40;;;;;;;0.00;0.00;;;;;;;;;;5042667;28;20207;-84
2023/05/31 03:41:09;;;;;;;0.00;0.00;;;;;;;;;;5042804;28;20675;-84
2023/05/31 03:43:38;;;;;;;0.00;0.00;;;;;;;;;;5041518;28;20216;-83
2023/05/31 03:46:08;;;;;;;0.00;0.00;;;;;;;;;;5042956;28;20230;-83
2023/05/31 03:48:36;;;;;;;0.00;0.00;;;;;;;;;;5042948;28;20298;-82
2023/05/31 03:51:05;;;;;;;0.00;0.00;;;;;;;;;;5042332;28;20204;-83
2023/05/31 03:53:34;;;;;;;0.00;0.00;;;;;;;;;;5040961;28;20234;-79
2023/05/31 03:56:02;;;;;;;0.00;0.00;;;;;;;;;;5043284;28;20230;-85
2023/05/31 03:58:31;;;;;;;0.00;0.00;;;;;;;;;;5042506;28;20207;-85
2023/05/31 04:00:59;;;;;;;0.00;0.00;;;;;;;;;;5041681;28;20214;-85
2023/05/31 04:03:30;;;;;;;0.00;0.00;;;;;;;;;;5041280;28;20269;-85
2023/05/31 04:05:58;;;;;;;0.00;0.00;;;;;;;;;;5042253;28;20227;-85
2023/05/31 04:08:27;;;;;;;0.00;0.00;;;;;;;;;;5041500;28;20579;-82
2023/05/31 04:10:55;;;;;;;0.00;0.00;;;;;;;;;;5040994;28;20203;-86
2023/05/31 04:13:24;;;;;;;0.00;0.00;;;;;;;;;;5041019;28;20224;-84
2023/05/31 04:15:52;;;;;;;0.00;0.00;;;;;;;;;;5041674;28;20254;-83
2023/05/31 04:18:21;;;;;;;0.00;0.00;;;;;;;;;;5029736;28;20245;-85
2023/05/31 04:20:51;;;;;;;0.00;0.00;;;;;;;;;;5041901;28;20207;-85
2023/05/31 04:23:20;;;;;;;0.00;0.00;;;;;;;;;;5041021;28;20278;-84
2023/05/31 04:25:49;;;;;;;0.00;0.00;;;;;;;;;;5043456;28;20211;-81
2023/05/31 04:28:19;;;;;;;0.00;0.00;;;;;;;;;;5043881;28;20267;-76
2023/05/31 04:30:48;;;;;;;0.00;0.00;;;;;;;;;;5043187;28;20283;-80
2023/05/31 04:33:17;;;;;;;0.00;0.00;;;;;;;;;;5035864;28;20243;-77
2023/05/31 04:35:46;;;;;;;0.00;0.00;;;;;;;;;;5030705;28;20224;-79
2023/05/31 04:38:18;;;;;;;0.00;0.00;;;;;;;;;;5042380;28;20684;-80
2023/05/31 04:40:48;;;;;;;0.00;0.00;;;;;;;;;;5042284;28;20184;-83
2023/05/31 04:43:18;;;;;;;0.00;0.00;;;;;;;;;;5043309;28;20222;-83
2023/05/31 04:45:48;;;;;;;0.00;0.00;;;;;;;;;;5042531;28;20244;-80
2023/05/31 04:48:17;;;;;;;0.00;0.00;;;;;;;;;;5036048;28;20668;-84
2023/05/31 04:50:46;;;;;;;0.00;0.00;;;;;;;;;;5033425;28;20656;-80
2023/05/31 04:53:16;;;;;;;0.00;0.00;;;;;;;;;;5027899;28;20303;-81
2023/05/31 04:55:45;;;;;;;0.00;0.00;;;;;;;;;;5032508;28;20232;-83
2023/05/31 04:58:14;;;;;;;0.00;0.00;;;;;;;;;;5029594;28;20203;-83
2023/05/31 05:00:45;;;;;;;0.00;0.00;;;;;;;;;;5021170;28;20195;-83
2023/05/31 05:03:14;;;;;;;0.00;0.00;;;;;;;;;;5036671;28;20195;-83
2023/05/31 05:05:43;;;;;;;0.00;0.00;;;;;;;;;;5036363;28;20763;-84
2023/05/31 05:08:11;;;;;;;0.00;0.00;;;;;;;;;;5037229;28;20203;-81
2023/05/31 05:10:41;;;;;;;0.00;0.00;;;;;;;;;;5035537;28;20295;-83
2023/05/31 05:13:10;;;;;;;0.00;0.00;;;;;;;;;;5033083;28;20645;-82
2023/05/31 05:15:38;;;;;;;0.00;0.00;;;;;;;;;;5030094;28;20233;-81
2023/05/31 05:18:07;;;;;;;0.00;0.00;;;;;;;;;;5037915;28;20566;-81
2023/05/31 05:20:35;;;;;;;0.00;0.00;;;;;;;;;;5032196;28;20250;-83
2023/05/31 05:23:07;;;;;;;0.00;0.00;;;;;;;;;;5022110;28;20205;-84
2023/05/31 05:25:36;;;;;;;0.00;0.00;;;;;;;;;;5029953;28;20594;-83
2023/05/31 05:28:06;;;;;;;0.00;0.00;;;;;;;;;;5024923;28;20211;-84
2023/05/31 05:30:35;;;;;;;0.00;0.00;;;;;;;;;;5036993;28;20208;-82
2023/05/31 05:33:04;;;;;;;0.00;0.00;;;;;;;;;;5029690;28;20228;-78
2023/05/31 05:35:33;;;;;;;0.00;0.00;;;;;;;;;;5028153;28;20255;-83
2023/05/31 05:38:01;;;;;;;0.00;0.00;;;;;;;;;;5029537;28;20192;-80
2023/05/31 05:40:30;;;;;;;0.00;0.00;;;;;;;;;;5029130;28;20223;-82
2023/05/31 05:42:58;;;;;;;0.00;0.00;;;;;;;;;;5018166;28;20220;-74
2023/05/31 05:45:31;;;;;;;0.00;0.00;;;;;;;;;;5019567;28;20224;-76
2023/05/31 05:47:59;;;;;;;0.00;0.00;;;;;;;;;;5019277;28;20204;-80
2023/05/31 05:50:28;;;;;;;0.00;0.00;;;;;;;;;;5020943;28;20208;-79
2023/05/31 05:52:56;;;;;;;0.00;0.00;;;;;;;;;;5023024;28;20208;-81
2023/05/31 05:55:25;;;;;;;0.00;0.00;;;;;;;;;;5020633;28;20571;-81
2023/05/31 05:57:53;;;;;;;0.00;0.00;;;;;;;;;;5019968;28;20567;-83
2023/05/31 06:00:24;;;;;;;0.00;0.00;;;;;;;;;;5018917;28;20209;-80
2023/05/31 06:02:54;;;;;;;0.00;0.00;;;;;;;;;;5022841;28;20204;-79
2023/05/31 06:05:25;;;;;;;0.00;0.00;;;;;;;;;;5022145;28;20224;-82
2023/05/31 06:07:54;;;;;;;0.00;0.00;;;;;;;;;;5023748;28;20227;-81
2023/05/31 06:10:23;;;;;;;0.00;0.00;;;;;;;;;;5024398;28;20236;-77
2023/05/31 06:12:52;;;;;;;0.00;0.00;;;;;;;;;;5025725;28;20204;-78
2023/05/31 06:15:20;;;;;;;0.00;0.00;;;;;;;;;;5024914;28;20238;-80
2023/05/31 06:17:49;;;;;;;0.00;0.00;;;;;;;;;;5024007;28;20235;-82
2023/05/31 06:20:19;;;;;;;0.00;0.00;;;;;;;;;;5022233;28;20669;-76
2023/05/31 06:22:47;;;;;;;0.00;0.00;;;;;;;;;;5022872;28;20254;-76
2023/05/31 06:25:17;;;;;;;0.00;0.00;;;;;;;;;;5024696;28;20263;-83
2023/05/31 06:27:46;;;;;;;0.00;0.00;;;;;;;;;;5025492;28;20212;-82
2023/05/31 06:30:15;;;;;;;0.00;0.00;;;;;;;;;;5024039;28;20204;-76
2023/05/31 06:32:43;;;;;;;0.00;0.00;;;;;;;;;;5017073;28;20225;-75
2023/05/31 06:35:12;;;;;;;0.00;0.00;;;;;;;;;;5018805;28;20228;-75
2023/05/31 06:37:42;;;;;;;0.00;0.00;;;;;;;;;;5016518;28;20208;-74
2023/05/31 06:40:11;;;;;;;0.00;0.00;;;;;;;;;;5014889;28;20212;-74
2023/05/31 06:42:40;;;;;;;0.00;0.00;;;;;;;;;;5014796;28;20647;-74
2023/05/31 06:45:09;;;;;;;0.00;0.00;;;;;;;;;;5014004;28;20247;-73
2023/05/31 06:47:37;;;;;;;0.00;0.00;;;;;;;;;;5013111;28;20204;-73
2023/05/31 06:50:06;;;;;;;0.00;0.00;;;;;;;;;;5013753;28;20727;-73
2023/05/31 06:52:35;;;;;;;0.00;0.00;;;;;;;;;;5013339;28;20236;-73
2023/05/31 06:55:05;;;;;;;0.00;0.00;;;;;;;;;;5013402;28;20224;-73
2023/05/31 06:57:33;;;;;;;0.00;0.00;;;;;;;;;;5013450;28;20226;-73
2023/05/31 07:00:03;;;;;;;0.00;0.00;;;;;;;;;;5012901;28;20211;-73
2023/05/31 07:02:31;;;;;;;0.00;0.00;;;;;;;;;;5012859;28;20665;-73
2023/05/31 07:05:00;;;;;;;0.00;0.00;;;;;;;;;;5013398;28;20251;-73
2023/05/31 07:07:29;;;;;;;0.00;0.00;;;;;;;;;;5013638;28;20296;-73
2023/05/31 07:09:58;;;;;;;0.00;0.00;;;;;;;;;;5013464;28;20209;-73
2023/05/31 07:12:28;;;;;;;0.00;0.00;;;;;;;;;;5013212;28;20677;-73
2023/05/31 07:14:56;;;;;;;0.00;0.00;;;;;;;;;;5013786;28;20684;-74
2023/05/31 07:17:24;;;;;;;0.00;0.00;;;;;;;;;;5013073;28;20220;-73
2023/05/31 07:19:53;;;;;;;0.00;0.00;;;;;;;;;;5013123;28;20207;-73
2023/05/31 07:22:22;;;;;;;0.00;0.00;;;;;;;;;;5013029;28;20200;-74
2023/05/31 07:24:50;;;;;;;0.00;0.00;;;;;;;;;;5013071;28;20224;-73
2023/05/31 07:27:18;;;;;;;0.00;0.00;;;;;;;;;;5013042;28;20207;-73
2023/05/31 07:29:48;;;;;;;0.00;0.00;;;;;;;;;;5013160;28;20685;-73
2023/05/31 07:32:17;;;;;;;0.00;0.00;;;;;;;;;;5016830;28;20673;-73
2023/05/31 07:34:45;;;;;;;0.00;0.00;;;;;;;;;;5016428;28;20246;-73
2023/05/31 07:37:30;;;;;;;0.00;0.00;;;;;;;;;;5015981;28;20691;-74
2023/05/31 07:39:58;;;;;;;0.00;0.00;;;;;;;;;;5016508;28;20206;-74
2023/05/31 07:42:28;;;;;;;0.00;0.00;;;;;;;;;;5015922;28;20231;-73
2023/05/31 07:44:58;;;;;;;0.00;0.00;;;;;;;;;;5016408;28;20255;-73
2023/05/31 07:47:27;;;;;;;0.00;0.00;;;;;;;;;;5016567;28;20661;-74
2023/05/31 07:49:55;;;;;;;0.00;0.00;;;;;;;;;;5016136;28;20295;-74
2023/05/31 07:52:24;;;;;;;0.00;0.00;;;;;;;;;;5016246;28;20204;-74
2023/05/31 07:54:52;;;;;;;0.00;0.00;;;;;;;;;;5015969;28;20227;-74
2023/05/31 07:57:20;;;;;;;0.00;0.00;;;;;;;;;;5016305;28;20711;-74
2023/05/31 07:59:51;;;;;;;0.00;0.00;;;;;;;;;;5016199;28;20204;-74
2023/05/31 08:02:21;;;;;;;0.00;0.00;;;;;;;;;;5016272;28;20208;-74
2023/05/31 08:04:50;;;;;;;0.00;0.00;;;;;;;;;;5016026;28;20705;-74
2023/05/31 08:07:18;;;;;;;0.00;0.00;;;;;;;;;;5016030;28;20201;-74
2023/05/31 08:09:47;;;;;;;0.00;0.00;;;;;;;;;;5015687;28;20216;-73
2023/05/31 08:12:16;;;;;;;0.00;0.00;;;;;;;;;;5015961;28;20579;-73
2023/05/31 08:14:47;;;;;;;0.00;0.00;;;;;;;;;;5015715;28;20228;-73
2023/05/31 08:17:15;;;;;;;0.00;0.00;;;;;;;;;;5015781;28;20247;-73
2023/05/31 08:19:45;;;;;;;0.00;0.00;;;;;;;;;;5015755;28;20250;-73
2023/05/31 08:22:14;;;;;;;0.00;0.00;;;;;;;;;;5015740;28;20287;-74
2023/05/31 08:24:42;;;;;;;0.00;0.00;;;;;;;;;;5015485;28;20228;-73
2023/05/31 08:27:11;;;;;;;0.00;0.00;;;;;;;;;;5015429;28;20692;-73
2023/05/31 08:29:39;;;;;;;0.00;0.00;;;;;;;;;;5015277;28;20212;-74
2023/05/31 08:32:08;;;;;;;0.00;0.00;;;;;;;;;;5015618;28;20216;-74
2023/05/31 08:34:36;;;;;;;0.00;0.00;;;;;;;;;;5015135;28;20259;-73
2023/05/31 08:37:06;;;;;;;0.00;0.00;;;;;;;;;;5015321;28;20221;-73
2023/05/31 08:39:34;;;;;;;0.00;0.00;;;;;;;;;;5015499;28;20211;-73
2023/05/31 08:42:05;;;;;;;0.00;0.00;;;;;;;;;;5013889;28;20212;-74
2023/05/31 08:44:34;;;;;;;0.00;0.00;;;;;;;;;;5015050;28;20232;-75
2023/05/31 08:47:07;;;;;;;0.00;0.00;;;;;;;;;;5015646;28;20657;-76
2023/05/31 08:49:36;;;;;;;0.00;0.00;;;;;;;;;;5015782;28;20247;-76
2023/05/31 08:52:07;;;;;;;0.00;0.00;;;;;;;;;;5015403;28;20235;-75
2023/05/31 08:54:36;;;;;;;0.00;0.00;;;;;;;;;;5015612;28;20224;-75
2023/05/31 08:57:05;;;;;;;0.00;0.00;;;;;;;;;;5015345;28;20228;-75
2023/05/31 08:59:36;;;;;;;0.00;0.00;;;;;;;;;;5015302;28;20227;-76
2023/05/31 09:02:05;;;;;;;0.00;0.00;;;;;;;;;;5014899;28;20284;-76
2023/05/31 09:04:34;;;;;;;0.00;0.00;;;;;;;;;;5015306;28;20292;-76
2023/05/31 09:07:02;;;;;;;0.00;0.00;;;;;;;;;;5014773;28;20211;-75
2023/05/31 09:09:32;;;;;;;0.00;0.00;;;;;;;;;;5015205;28;20204;-75
2023/05/31 09:12:01;;;;;;;0.00;0.00;;;;;;;;;;5014962;28;20283;-75
2023/05/31 09:14:30;;;;;;;0.00;0.00;;;;;;;;;;5014637;28;20232;-75
2023/05/31 09:16:58;;;;;;;0.00;0.00;;;;;;;;;;5014558;28;20252;-76
2023/05/31 09:19:27;;;;;;;0.00;0.00;;;;;;;;;;5014501;28;20259;-75
2023/05/31 09:21:55;;;;;;;0.00;0.00;;;;;;;;;;5014802;28;20661;-75
2023/05/31 09:24:24;;;;;;;0.00;0.00;;;;;;;;;;5014383;28;20228;-77
2023/05/31 09:26:55;;;;;;;0.00;0.00;;;;;;;;;;5015246;28;20569;-76
2023/05/31 09:29:23;;;;;;;0.00;0.00;;;;;;;;;;5014925;28;20193;-75
2023/05/31 09:32:08;;;;;;;0.00;0.00;;;;;;;;;;5014275;28;20204;-75
2023/05/31 09:34:37;;;;;;;0.00;0.00;;;;;;;;;;5014510;28;20278;-76
2023/05/31 09:37:05;;;;;;;0.00;0.00;;;;;;;;;;5014526;28;20227;-76
